Time;durP1;ratioP1;P1;durP2;ratioP2;P2;SDS_P1;SDS_P2;PMS_P1;PMS_P2;Temp;Humidity;BMP_temperature;BMP_pressure;BME280_temperature;BME280_humidity;BME280_pressure;Samples;Min_cycle;Max_cycle;Signal;HPM_P1;HPM_P2
2023/03/21 00:00:06;;;;;;;;;;;;;;;9.24;62.02;92916.31;2065223;69;20105;-73
2023/03/21 00:02:33;;;;;;;;;;;;;;;9.24;61.28;92919.84;2052380;70;20054;-73
2023/03/21 00:04:59;;;;;;;;;;;;;;;9.15;61.65;92924.16;2052268;70;20053;-73
2023/03/21 00:07:29;;;;;;;;;;;;;;;9.00;61.79;92918.91;2052380;69;20063;-73
2023/03/21 00:10:00;;;;;;;;;;;;;;;9.09;62.17;92911.78;2052529;70;20063;-73
2023/03/21 00:12:31;;;;;;;;;;;;;;;9.11;61.14;92909.84;2052468;69;20043;-74
2023/03/21 00:15:04;;;;;;;;;;;;;;;9.27;60.48;92903.88;2052397;69;20057;-72
2023/03/21 00:17:32;;;;;;;;;;;;;;;9.22;60.73;92907.75;2052258;70;20063;-73
2023/03/21 00:20:13;;;;;;;;;;;;;;;9.11;60.59;92901.41;2052309;70;20066;-73
2023/03/21 00:22:57;;;;;;;;;;;;;;;8.95;60.97;92903.13;2063951;69;20501;-72
2023/03/21 00:25:28;;;;;;;;;;;;;;;8.98;61.09;92904.75;2052282;69;20127;-73
2023/03/21 00:27:57;;;;;;;;;;;;;;;9.01;61.28;92895.09;2052330;70;20057;-73
2023/03/21 00:30:24;;;;;;;;;;;;;;;9.17;60.97;92892.69;2052209;70;20059;-72
2023/03/21 00:32:53;;;;;;;;;;;;;;;9.14;60.78;92889.00;2052225;69;20141;-74
2023/03/21 00:35:29;;;;;;;;;;;;;;;8.96;62.08;92884.94;2064297;69;20170;-74
2023/03/21 00:38:17;;;;;;;;;;;;;;;9.00;61.86;92887.28;2052747;69;20050;-73
2023/03/21 00:40:46;;;;;;;;;;;;;;;8.72;63.56;92891.66;2045414;69;20125;-72
2023/03/21 00:43:16;;;;;;;;;;;;;;;8.82;62.56;92890.28;2045478;70;20055;-72
2023/03/21 00:45:45;;;;;;;;;;;;;;;8.94;62.55;92884.81;2045767;70;20536;-72
2023/03/21 00:48:19;;;;;;;;;;;;;;;9.00;62.19;92879.59;2045569;70;20117;-72
2023/03/21 00:50:46;;;;;;;;;;;;;;;9.09;61.73;92872.47;2045084;70;20512;-72
2023/03/21 00:53:14;;;;;;;;;;;;;;;9.02;62.11;92868.50;2045542;70;20083;-73
2023/03/21 00:55:42;;;;;;;;;;;;;;;8.84;63.19;92868.00;2045789;70;20078;-73
2023/03/21 00:58:08;;;;;;;;;;;;;;;8.93;62.59;92868.53;2045169;70;20091;-73
2023/03/21 01:00:42;;;;;;;;;;;;;;;8.79;62.88;92871.09;2045384;70;20044;-73
2023/03/21 01:03:25;;;;;;;;;;;;;;;8.68;63.76;92878.06;2045657;70;20483;-73
2023/03/21 01:06:05;;;;;;;;;;;;;;;8.74;63.14;92886.16;2044992;70;20113;-74
2023/03/21 01:08:37;;;;;;;;;;;;;;;8.70;62.97;92878.19;2044624;70;20158;-73
2023/03/21 01:11:12;;;;;;;;;;;;;;;8.68;63.24;92877.34;2045590;70;20139;-72
2023/03/21 01:13:45;;;;;;;;;;;;;;;8.73;63.07;92879.09;2045507;70;20113;-72
2023/03/21 01:16:21;;;;;;;;;;;;;;;8.79;61.71;92871.81;2045573;70;20117;-73
2023/03/21 01:18:50;;;;;;;;;;;;;;;8.50;64.12;92871.91;2045302;69;20483;-73
2023/03/21 01:21:22;;;;;;;;;;;;;;;8.31;65.42;92867.03;2045211;70;20456;-72
2023/03/21 01:23:49;;;;;;;;;;;;;;;8.50;64.80;92871.16;2045660;69;20117;-72
2023/03/21 01:26:21;;;;;;;;;;;;;;;8.57;64.90;92871.00;2045169;70;20492;-73
2023/03/21 01:28:54;;;;;;;;;;;;;;;8.50;64.36;92862.75;2045021;70;20083;-73
2023/03/21 01:31:22;;;;;;;;;;;;;;;8.64;64.09;92860.94;2042155;70;20111;-73
2023/03/21 01:33:49;;;;;;;;;;;;;;;8.65;63.78;92856.78;2042438;70;20043;-73
2023/03/21 01:36:24;;;;;;;;;;;;;;;8.63;63.91;92856.66;2045128;69;20542;-72
2023/03/21 01:39:03;;;;;;;;;;;;;;;8.56;63.75;92847.06;2047175;70;20059;-73
2023/03/21 01:41:43;;;;;;;;;;;;;;;8.47;64.71;92852.72;2068107;69;20087;-72
2023/03/21 01:44:34;;;;;;;;;;;;;;;8.69;63.29;92851.47;2065155;69;20051;-72
2023/03/21 01:47:01;;;;;;;;;;;;;;;8.61;64.21;92856.50;2065138;69;20078;-72
2023/03/21 01:49:37;;;;;;;;;;;;;;;8.63;63.80;92846.19;2051428;70;20163;-73
2023/03/21 01:52:22;;;;;;;;;;;;;;;8.58;64.23;92854.91;2052491;69;20142;-72
2023/03/21 01:54:55;;;;;;;;;;;;;;;8.49;64.65;92858.47;2062514;69;20079;-73
2023/03/21 01:57:34;;;;;;;;;;;;;;;8.54;63.49;92860.97;2052913;70;20051;-73
2023/03/21 02:00:10;;;;;;;;;;;;;;;8.48;63.91;92857.75;2065724;69;20719;-72
2023/03/21 02:03:02;;;;;;;;;;;;;;;8.59;64.21;92865.53;2065487;69;20097;-73
2023/03/21 02:06:06;;;;;;;;;;;;;;;8.57;64.07;92861.88;2052872;70;20506;-73
2023/03/21 02:08:39;;;;;;;;;;;;;;;8.58;63.43;92861.25;2068440;69;20055;-73
2023/03/21 02:11:11;;;;;;;;;;;;;;;7.83;66.19;92855.84;2049736;70;20198;-73
2023/03/21 02:13:44;;;;;;;;;;;;;;;8.12;66.38;92853.03;2052894;70;20058;-71
2023/03/21 02:16:34;;;;;;;;;;;;;;;8.05;66.26;92848.31;2052520;70;20097;-71
2023/03/21 02:19:13;;;;;;;;;;;;;;;8.14;65.95;92842.69;2050737;69;20054;-73
2023/03/21 02:21:57;;;;;;;;;;;;;;;8.34;64.94;92843.41;2052684;70;20051;-73
2023/03/21 02:25:05;;;;;;;;;;;;;;;8.36;65.76;92837.19;2065725;69;20050;-74
2023/03/21 02:27:40;;;;;;;;;;;;;;;8.38;66.01;92838.13;2039082;70;20110;-73
2023/03/21 02:30:23;;;;;;;;;;;;;;;8.44;64.82;92837.06;2051154;70;20144;-73
2023/03/21 02:33:18;;;;;;;;;;;;;;;8.49;64.68;92833.22;2052136;70;20163;-72
2023/03/21 02:35:45;;;;;;;;;;;;;;;8.53;64.47;92845.47;2065549;69;20553;-72
2023/03/21 02:38:17;;;;;;;;;;;;;;;8.38;65.59;92831.75;2065278;69;20051;-73
2023/03/21 03:05:21;;;;;;;;;;;;;;;8.57;64.52;92828.91;2063190;69;20052;-72
2023/03/21 03:08:08;;;;;;;;;;;;;;;8.48;65.26;92821.25;2058197;69;20050;-74
2023/03/21 03:10:40;;;;;;;;;;;;;;;8.45;64.57;92830.13;2061346;69;20397;-72
2023/03/21 03:13:12;;;;;;;;;;;;;;;8.42;65.58;92822.91;2061396;69;20049;-73
2023/03/21 03:15:44;;;;;;;;;;;;;;;8.55;63.69;92825.22;2061426;69;20497;-73
2023/03/21 03:18:30;;;;;;;;;;;;;;;8.45;64.17;92818.91;2057945;69;20090;-73
2023/03/21 03:20:59;;;;;;;;;;;;;;;8.31;65.43;92815.81;2061326;69;20057;-74
2023/03/21 03:23:45;;;;;;;;;;;;;;;8.38;65.60;92817.72;2058203;69;20064;-71
2023/03/21 03:26:28;;;;;;;;;;;;;;;8.53;64.32;92814.59;2058231;69;20062;-72
2023/03/21 03:29:00;;;;;;;;;;;;;;;8.32;66.15;92808.88;2058279;69;20156;-72
2023/03/21 03:31:59;;;;;;;;;;;;;;;8.50;65.67;92817.84;2058478;69;21495;-73
2023/03/21 03:34:39;;;;;;;;;;;;;;;8.52;65.04;92806.75;2061338;69;20113;-73
2023/03/21 03:37:10;;;;;;;;;;;;;;;8.49;65.02;92805.16;2058124;69;20058;-70
2023/03/21 03:39:43;;;;;;;;;;;;;;;8.53;65.48;92816.69;2056697;69;20049;-72
2023/03/21 03:42:18;;;;;;;;;;;;;;;8.60;64.92;92813.69;2045755;69;20055;-71
2023/03/21 03:44:48;;;;;;;;;;;;;;;8.47;66.41;92810.63;2058197;69;20055;-72
2023/03/21 03:47:17;;;;;;;;;;;;;;;8.41;65.86;92813.75;2058119;69;20059;-73
2023/03/21 03:50:07;;;;;;;;;;;;;;;8.48;65.73;92814.94;2058024;69;20125;-71
2023/03/21 04:03:35;;;;;;;;;;;;;;;8.50;65.19;92812.25;2045448;69;20050;-72
2023/03/21 04:06:10;;;;;;;;;;;;;;;8.48;65.37;92815.66;2057510;69;20140;-73
2023/03/21 04:08:38;;;;;;;;;;;;;;;8.53;64.85;92808.25;2045305;70;20188;-73
2023/03/21 04:11:05;;;;;;;;;;;;;;;8.55;65.11;92814.72;2055588;69;20059;-73
2023/03/21 04:13:39;;;;;;;;;;;;;;;8.25;66.05;92821.72;2058219;69;20098;-73
2023/03/21 04:16:10;;;;;;;;;;;;;;;8.32;66.46;92812.41;2058333;69;20174;-74
2023/03/21 04:18:45;;;;;;;;;;;;;;;8.36;66.35;92814.75;2060864;69;20087;-73
2023/03/21 04:21:24;;;;;;;;;;;;;;;8.42;65.97;92809.59;2058476;69;20055;-72
2023/03/21 04:23:55;;;;;;;;;;;;;;;8.35;65.94;92805.63;2045182;70;20071;-73
2023/03/21 04:26:31;;;;;;;;;;;;;;;8.54;64.95;92812.53;2055217;69;20085;-73
2023/03/21 04:29:17;;;;;;;;;;;;;;;8.45;64.84;92805.63;2045398;70;20057;-74
2023/03/21 04:32:03;;;;;;;;;;;;;;;8.42;66.60;92806.06;2045061;70;20293;-73
2023/03/21 04:34:32;;;;;;;;;;;;;;;8.42;65.53;92811.66;2058012;69;20064;-72
2023/03/21 04:37:09;;;;;;;;;;;;;;;8.36;65.52;92809.16;2045343;70;20078;-72
2023/03/21 04:39:38;;;;;;;;;;;;;;;8.34;66.36;92811.81;2045263;70;20450;-73
2023/03/21 04:42:04;;;;;;;;;;;;;;;8.35;66.22;92807.69;2045463;70;20142;-73
2023/03/21 04:44:31;;;;;;;;;;;;;;;8.37;65.88;92808.56;2045508;70;20075;-74
2023/03/21 04:47:00;;;;;;;;;;;;;;;8.36;65.93;92803.53;2041749;70;20541;-74
2023/03/21 04:49:29;;;;;;;;;;;;;;;8.30;65.93;92798.25;2058194;69;20129;-73
2023/03/21 04:51:59;;;;;;;;;;;;;;;8.32;65.29;92795.56;2045742;70;20532;-73
2023/03/21 04:54:26;;;;;;;;;;;;;;;8.37;65.11;92800.16;2045542;70;20071;-73
2023/03/21 04:56:52;;;;;;;;;;;;;;;8.39;65.34;92796.78;2060911;69;20047;-73
2023/03/21 04:59:23;;;;;;;;;;;;;;;8.43;65.13;92790.69;2045535;70;20084;-73
2023/03/21 05:01:52;;;;;;;;;;;;;;;8.41;64.87;92791.31;2041624;70;20071;-72
2023/03/21 05:04:19;;;;;;;;;;;;;;;8.43;64.63;92787.88;2045596;70;20044;-72
2023/03/21 05:06:45;;;;;;;;;;;;;;;8.14;66.05;92788.69;2045355;70;20081;-73
2023/03/21 05:09:12;;;;;;;;;;;;;;;7.64;68.63;92787.25;2041802;70;20083;-73
2023/03/21 05:11:41;;;;;;;;;;;;;;;8.05;66.78;92792.22;2045562;70;20479;-72
2023/03/21 05:14:13;;;;;;;;;;;;;;;8.11;65.97;92803.91;2041896;70;20059;-73
2023/03/21 05:16:54;;;;;;;;;;;;;;;8.27;65.28;92793.09;2045489;70;20047;-73
2023/03/21 05:19:24;;;;;;;;;;;;;;;8.17;66.09;92804.31;2045515;69;20188;-74
2023/03/21 05:21:51;;;;;;;;;;;;;;;8.13;66.17;92790.75;2045604;69;20521;-73
2023/03/21 05:24:24;;;;;;;;;;;;;;;8.21;65.85;92795.47;2057164;69;20147;-73
2023/03/21 05:26:54;;;;;;;;;;;;;;;8.22;66.56;92794.88;2045675;69;20295;-73
2023/03/21 05:29:25;;;;;;;;;;;;;;;8.18;65.74;92799.44;2045550;70;20475;-74
2023/03/21 05:32:01;;;;;;;;;;;;;;;8.25;65.84;92795.75;2045907;70;20083;-72
2023/03/21 05:34:29;;;;;;;;;;;;;;;7.96;67.48;92802.13;2045603;69;20426;-72
2023/03/21 05:36:56;;;;;;;;;;;;;;;7.68;69.08;92798.03;2045945;70;20060;-73
2023/03/21 05:39:24;;;;;;;;;;;;;;;7.83;68.27;92800.53;2061290;69;20088;-72
2023/03/21 05:42:00;;;;;;;;;;;;;;;8.10;66.77;92803.13;2042447;70;20055;-71
2023/03/21 05:44:26;;;;;;;;;;;;;;;8.13;66.79;92809.66;2061404;69;20055;-71
2023/03/21 05:46:51;;;;;;;;;;;;;;;8.18;67.15;92807.88;2042327;69;20066;-71
2023/03/21 05:49:21;;;;;;;;;;;;;;;8.19;67.16;92818.47;2042401;69;20182;-71
2023/03/21 05:51:50;;;;;;;;;;;;;;;8.18;66.83;92827.50;2042400;70;20506;-72
2023/03/21 05:54:16;;;;;;;;;;;;;;;7.75;68.54;92824.44;2042208;70;20071;-72
2023/03/21 05:56:47;;;;;;;;;;;;;;;7.83;68.49;92822.19;2042405;70;20055;-75
2023/03/21 05:59:21;;;;;;;;;;;;;;;7.94;68.12;92829.28;2061191;69;20087;-72
2023/03/21 06:01:49;;;;;;;;;;;;;;;7.92;68.59;92829.13;2042133;70;20059;-72
2023/03/21 06:04:15;;;;;;;;;;;;;;;7.92;69.00;92829.88;2042349;70;20125;-72
2023/03/21 06:06:40;;;;;;;;;;;;;;;7.98;68.64;92830.31;2045860;70;20107;-72
2023/03/21 06:09:07;;;;;;;;;;;;;;;7.93;69.53;92828.56;2045859;69;20052;-72
2023/03/21 06:11:36;;;;;;;;;;;;;;;8.11;67.89;92829.88;2061282;69;20403;-72
2023/03/21 06:14:14;;;;;;;;;;;;;;;8.22;67.55;92831.31;2046091;70;20483;-72
2023/03/21 06:16:41;;;;;;;;;;;;;;;8.11;68.37;92827.06;2042115;70;20136;-71
2023/03/21 06:19:07;;;;;;;;;;;;;;;8.08;68.31;92813.50;2042382;69;20055;-72
2023/03/21 06:21:52;;;;;;;;;;;;;;;8.06;67.68;92828.13;2042897;69;20087;-72
2023/03/21 06:24:20;;;;;;;;;;;;;;;7.70;70.76;92826.22;2045708;70;20062;-71
2023/03/21 06:26:47;;;;;;;;;;;;;;;8.05;69.44;92828.69;2061094;69;20167;-72
2023/03/21 06:29:12;;;;;;;;;;;;;;;8.36;67.90;92832.34;2039467;70;20075;-72
2023/03/21 06:31:42;;;;;;;;;;;;;;;8.45;67.88;92839.28;2041938;69;20040;-71
2023/03/21 06:34:10;;;;;;;;;;;;;;;8.43;67.83;92839.16;2058192;69;20061;-72
2023/03/21 06:36:36;;;;;;;;;;;;;;;8.30;68.93;92843.13;2042121;69;20535;-72
2023/03/21 06:39:02;;;;;;;;;;;;;;;8.43;68.16;92844.00;2060939;69;20143;-72
2023/03/21 06:41:28;;;;;;;;;;;;;;;8.46;67.76;92845.63;2042036;70;20055;-72
2023/03/21 06:44:01;;;;;;;;;;;;;;;8.64;67.10;92846.91;2042193;70;20145;-73
2023/03/21 06:46:29;;;;;;;;;;;;;;;8.84;67.01;92847.56;2061047;69;20459;-73
2023/03/21 06:48:55;;;;;;;;;;;;;;;8.89;67.21;92852.16;2042170;70;20425;-73
2023/03/21 06:51:21;;;;;;;;;;;;;;;8.97;66.81;92849.88;2042217;70;20066;-73
2023/03/21 06:54:00;;;;;;;;;;;;;;;9.09;66.41;92841.56;2042119;69;20060;-73
2023/03/21 06:56:37;;;;;;;;;;;;;;;9.09;66.03;92841.56;2042204;70;20126;-73
2023/03/21 06:59:04;;;;;;;;;;;;;;;9.23;66.20;92850.22;2042193;70;20052;-73
2023/03/21 07:01:45;;;;;;;;;;;;;;;9.26;65.54;92846.22;2042147;70;20058;-73
2023/03/21 07:04:12;;;;;;;;;;;;;;;9.11;65.13;92845.25;2039471;70;20051;-73
2023/03/21 07:06:37;;;;;;;;;;;;;;;9.13;65.94;92844.66;2042215;69;20059;-73
2023/03/21 07:09:04;;;;;;;;;;;;;;;9.21;64.95;92852.88;2045759;70;20051;-73
2023/03/21 07:11:31;;;;;;;;;;;;;;;9.46;64.16;92844.03;2042208;70;20140;-73
2023/03/21 07:13:57;;;;;;;;;;;;;;;9.47;64.24;92848.31;2061042;69;20360;-73
2023/03/21 07:16:23;;;;;;;;;;;;;;;9.40;64.01;92847.91;2041997;70;20051;-73
2023/03/21 07:18:50;;;;;;;;;;;;;;;9.48;63.31;92841.34;2042202;70;20059;-73
2023/03/21 07:21:16;;;;;;;;;;;;;;;9.48;63.74;92842.09;2045808;70;20043;-72
2023/03/21 07:23:42;;;;;;;;;;;;;;;9.62;63.04;92839.50;2042173;70;20129;-73
2023/03/21 07:26:08;;;;;;;;;;;;;;;9.64;62.36;92836.81;2042173;70;20474;-72
2023/03/21 07:28:34;;;;;;;;;;;;;;;9.53;62.47;92841.03;2042094;69;20055;-72
2023/03/21 07:31:01;;;;;;;;;;;;;;;9.66;62.51;92842.56;2045755;70;20043;-73
2023/03/21 07:33:26;;;;;;;;;;;;;;;9.56;62.21;92837.00;2045822;70;20062;-73
2023/03/21 07:35:57;;;;;;;;;;;;;;;9.82;61.73;92834.47;2042152;70;20067;-72
2023/03/21 07:38:22;;;;;;;;;;;;;;;9.90;61.31;92827.31;2042135;70;20489;-72
2023/03/21 07:40:48;;;;;;;;;;;;;;;9.92;61.38;92838.69;2046465;70;20058;-74
2023/03/21 07:43:14;;;;;;;;;;;;;;;9.96;61.22;92832.59;2041530;70;20063;-73
2023/03/21 07:45:42;;;;;;;;;;;;;;;9.93;60.98;92831.72;2042259;69;20143;-74
2023/03/21 07:48:09;;;;;;;;;;;;;;;10.10;60.53;92827.88;2046002;70;20055;-75
2023/03/21 07:50:34;;;;;;;;;;;;;;;10.26;60.86;92839.47;2045762;70;20058;-74
2023/03/21 07:53:00;;;;;;;;;;;;;;;9.84;61.26;92840.97;2042200;70;20059;-74
2023/03/21 07:55:26;;;;;;;;;;;;;;;10.09;60.28;92836.94;2045896;70;20091;-75
2023/03/21 07:57:51;;;;;;;;;;;;;;;10.34;59.25;92839.97;2042156;70;20117;-73
2023/03/21 08:00:21;;;;;;;;;;;;;;;10.61;59.81;92844.47;2045797;70;20054;-72
2023/03/21 08:02:47;;;;;;;;;;;;;;;10.52;59.88;92839.66;2042095;70;20139;-72
2023/03/21 08:05:14;;;;;;;;;;;;;;;10.58;59.79;92840.03;2045744;70;20114;-72
2023/03/21 08:07:40;;;;;;;;;;;;;;;9.93;61.13;92836.59;2045644;69;20087;-72
2023/03/21 08:10:05;;;;;;;;;;;;;;;9.94;61.53;92840.88;2045455;69;20527;-72
2023/03/21 08:12:31;;;;;;;;;;;;;;;10.10;61.75;92829.97;2045372;70;20158;-72
2023/03/21 08:14:58;;;;;;;;;;;;;;;10.23;60.75;92840.66;2045346;70;20113;-73
2023/03/21 08:17:23;;;;;;;;;;;;;;;10.17;61.15;92835.38;2058173;69;20062;-72
2023/03/21 08:19:49;;;;;;;;;;;;;;;10.30;59.86;92828.47;2045584;69;20051;-72
2023/03/21 08:22:14;;;;;;;;;;;;;;;10.34;59.25;92836.44;2045361;70;20055;-72
2023/03/21 08:24:40;;;;;;;;;;;;;;;10.30;60.17;92828.47;2058159;69;20582;-72
2023/03/21 08:27:06;;;;;;;;;;;;;;;10.44;59.73;92834.25;2045299;70;20080;-74
2023/03/21 08:29:32;;;;;;;;;;;;;;;10.00;59.89;92838.50;2045243;70;20434;-74
2023/03/21 08:31:57;;;;;;;;;;;;;;;10.20;60.21;92833.41;2045055;70;20044;-73
2023/03/21 08:34:23;;;;;;;;;;;;;;;10.91;58.72;92835.09;2058239;69;20553;-73
2023/03/21 08:36:48;;;;;;;;;;;;;;;11.14;57.47;92828.75;2045201;70;20172;-73
2023/03/21 08:39:14;;;;;;;;;;;;;;;11.08;57.00;92827.63;2045249;70;20142;-73
2023/03/21 08:41:39;;;;;;;;;;;;;;;11.28;56.91;92828.13;2045258;70;20142;-73
2023/03/21 08:44:07;;;;;;;;;;;;;;;11.30;55.87;92836.69;2045131;70;20549;-72
2023/03/21 08:46:33;;;;;;;;;;;;;;;11.26;55.96;92819.56;2044997;69;20048;-73
2023/03/21 08:48:59;;;;;;;;;;;;;;;10.56;58.23;92823.03;2045129;70;20149;-73
2023/03/21 08:51:25;;;;;;;;;;;;;;;10.96;56.63;92822.00;2045208;69;20542;-73
2023/03/21 08:53:50;;;;;;;;;;;;;;;11.15;56.63;92816.13;2045224;70;20055;-73
2023/03/21 08:56:16;;;;;;;;;;;;;;;11.35;55.11;92816.59;2045096;70;20058;-74
2023/03/21 08:58:43;;;;;;;;;;;;;;;10.75;57.01;92814.38;2045307;70;20074;-74
2023/03/21 09:01:10;;;;;;;;;;;;;;;10.94;56.23;92819.78;2045282;69;20118;-73
2023/03/21 09:03:38;;;;;;;;;;;;;;;11.02;56.08;92813.91;2045229;69;20091;-73
2023/03/21 09:06:04;;;;;;;;;;;;;;;11.65;55.22;92808.47;2045071;69;20430;-73
2023/03/21 09:08:29;;;;;;;;;;;;;;;11.58;54.76;92810.19;2045415;70;20047;-73
2023/03/21 09:10:55;;;;;;;;;;;;;;;11.25;55.66;92809.63;2045159;70;20051;-73
2023/03/21 09:13:21;;;;;;;;;;;;;;;11.53;54.65;92807.75;2055425;69;20269;-73
2023/03/21 09:15:47;;;;;;;;;;;;;;;11.37;54.28;92801.91;2045387;69;20407;-73
2023/03/21 09:18:14;;;;;;;;;;;;;;;11.17;55.51;92807.78;2045084;70;20047;-73
2023/03/21 09:20:41;;;;;;;;;;;;;;;11.65;54.70;92800.75;2045201;69;20143;-73
2023/03/21 09:23:07;;;;;;;;;;;;;;;11.90;53.09;92800.09;2045163;69;20055;-73
2023/03/21 09:25:33;;;;;;;;;;;;;;;11.62;54.84;92812.53;2057655;69;20051;-73
2023/03/21 09:27:59;;;;;;;;;;;;;;;12.27;53.40;92804.25;2045119;70;20121;-73
2023/03/21 09:30:25;;;;;;;;;;;;;;;12.80;51.86;92799.44;2045210;70;20044;-73
2023/03/21 09:32:54;;;;;;;;;;;;;;;12.86;52.39;92805.41;2057708;69;20176;-75
2023/03/21 09:35:20;;;;;;;;;;;;;;;13.50;51.26;92797.44;2044962;70;20141;-74
2023/03/21 09:37:46;;;;;;;;;;;;;;;13.56;51.18;92798.50;2045033;70;20430;-73
2023/03/21 09:40:15;;;;;;;;;;;;;;;13.97;50.05;92797.69;2057505;69;20075;-74
2023/03/21 09:42:56;;;;;;;;;;;;;;;14.10;50.16;92799.03;2045315;69;20054;-74
2023/03/21 09:45:28;;;;;;;;;;;;;;;14.50;48.94;92794.63;2058130;69;20063;-74
2023/03/21 09:47:55;;;;;;;;;;;;;;;14.26;48.26;92793.44;2045069;70;20460;-74
2023/03/21 09:50:30;;;;;;;;;;;;;;;14.18;46.92;92794.50;2045180;69;20128;-73
2023/03/21 09:53:00;;;;;;;;;;;;;;;14.33;47.17;92784.59;2045337;69;20051;-73
2023/03/21 09:55:29;;;;;;;;;;;;;;;13.85;47.27;92780.84;2045396;70;20066;-74
2023/03/21 09:58:15;;;;;;;;;;;;;;;14.09;47.77;92777.75;2045064;70;20047;-72
2023/03/21 10:00:44;;;;;;;;;;;;;;;14.84;46.29;92778.50;2043673;69;20067;-72
2023/03/21 10:03:29;;;;;;;;;;;;;;;15.12;45.42;92773.44;2044865;70;20075;-73
2023/03/21 10:05:57;;;;;;;;;;;;;;;14.76;44.82;92775.31;2045155;70;20142;-73
2023/03/21 10:08:37;;;;;;;;;;;;;;;15.22;44.35;92776.00;2057879;69;20048;-73
2023/03/21 10:11:21;;;;;;;;;;;;;;;15.32;44.01;92770.75;2044915;70;20087;-72
2023/03/21 10:13:55;;;;;;;;;;;;;;;15.13;43.17;92769.22;2057792;69;20146;-73
2023/03/21 10:16:24;;;;;;;;;;;;;;;15.32;43.76;92767.94;2044956;69;20067;-72
2023/03/21 10:18:49;;;;;;;;;;;;;;;15.12;43.89;92764.16;2058391;69;20052;-73
2023/03/21 10:21:25;;;;;;;;;;;;;;;14.54;43.97;92758.00;2045476;70;20155;-73
2023/03/21 10:23:52;;;;;;;;;;;;;;;14.77;44.59;92756.94;2045465;70;20051;-74
2023/03/21 10:26:19;;;;;;;;;;;;;;;15.13;43.67;92760.72;2045467;69;20091;-73
2023/03/21 10:28:47;;;;;;;;;;;;;;;14.46;43.58;92758.31;2045552;70;20084;-75
2023/03/21 10:31:21;;;;;;;;;;;;;;;14.46;42.76;92754.75;2045215;70;20051;-74
2023/03/21 10:33:48;;;;;;;;;;;;;;;14.72;43.58;92750.34;2045420;69;20054;-73
2023/03/21 10:36:16;;;;;;;;;;;;;;;14.65;44.37;92745.78;2045346;70;20411;-73
2023/03/21 10:38:50;;;;;;;;;;;;;;;14.40;43.93;92743.16;2045432;70;20175;-73
2023/03/21 10:41:15;;;;;;;;;;;;;;;14.32;43.82;92740.66;2045281;70;20511;-75
2023/03/21 10:43:43;;;;;;;;;;;;;;;14.76;43.05;92734.94;2045335;69;20126;-74
2023/03/21 10:46:22;;;;;;;;;;;;;;;14.26;43.21;92743.22;2045354;70;20063;-75
2023/03/21 10:48:53;;;;;;;;;;;;;;;14.33;43.68;92736.47;2045573;69;20501;-72
2023/03/21 10:51:20;;;;;;;;;;;;;;;15.23;43.12;92735.63;2045643;69;20058;-72
2023/03/21 10:53:50;;;;;;;;;;;;;;;14.70;43.54;92738.19;2045738;69;20483;-73
2023/03/21 10:56:16;;;;;;;;;;;;;;;15.00;43.16;92731.09;2058406;69;20083;-72
2023/03/21 10:58:44;;;;;;;;;;;;;;;14.50;43.70;92732.31;2045587;70;20635;-73
2023/03/21 11:01:13;;;;;;;;;;;;;;;14.48;43.85;92735.81;2045505;69;20053;-73
2023/03/21 11:03:45;;;;;;;;;;;;;;;15.14;43.11;92736.66;2058045;69;20078;-74
2023/03/21 11:06:30;;;;;;;;;;;;;;;15.39;42.54;92735.59;2045639;70;20074;-73
2023/03/21 11:08:59;;;;;;;;;;;;;;;15.13;43.08;92740.13;2045548;70;20139;-74
2023/03/21 11:11:26;;;;;;;;;;;;;;;15.70;43.01;92736.94;2045603;70;20063;-74
2023/03/21 11:13:57;;;;;;;;;;;;;;;15.63;43.26;92733.09;2055739;69;20246;-75
2023/03/21 11:16:23;;;;;;;;;;;;;;;15.94;43.12;92738.00;2045371;70;20106;-75
2023/03/21 11:18:49;;;;;;;;;;;;;;;16.35;41.81;92733.22;2045595;69;20480;-75
2023/03/21 11:21:15;;;;;;;;;;;;;;;15.16;42.25;92719.72;2045451;70;20126;-75
2023/03/21 11:23:44;;;;;;;;;;;;;;;15.27;43.33;92723.03;2058481;69;20051;-74
2023/03/21 11:26:11;;;;;;;;;;;;;;;15.56;44.06;92725.69;2058321;69;20058;-74
2023/03/21 11:28:40;;;;;;;;;;;;;;;16.13;42.87;92721.69;2045370;70;20407;-74
2023/03/21 11:31:08;;;;;;;;;;;;;;;16.25;42.70;92711.53;2045457;69;20043;-73
2023/03/21 11:33:55;;;;;;;;;;;;;;;16.53;41.96;92711.19;2045278;70;20098;-74
2023/03/21 11:36:20;;;;;;;;;;;;;;;17.05;42.11;92702.53;2045498;69;20472;-73
2023/03/21 11:39:12;;;;;;;;;;;;;;;16.45;41.21;92694.59;2045432;70;20103;-74
2023/03/21 11:41:39;;;;;;;;;;;;;;;15.88;42.04;92689.47;2054731;69;20080;-73
2023/03/21 11:44:04;;;;;;;;;;;;;;;15.86;42.94;92686.56;2045498;69;20043;-74
2023/03/21 11:46:31;;;;;;;;;;;;;;;15.59;41.72;92681.13;2045519;69;20059;-74
2023/03/21 11:48:57;;;;;;;;;;;;;;;15.94;41.19;92672.69;2045466;70;20062;-75
2023/03/21 11:51:42;;;;;;;;;;;;;;;16.55;41.23;92674.34;2045485;70;20039;-75
2023/03/21 11:54:11;;;;;;;;;;;;;;;15.87;40.98;92667.41;2045452;70;20083;-74
2023/03/21 11:56:43;;;;;;;;;;;;;;;16.47;40.59;92657.72;2045427;70;20482;-76
2023/03/21 11:59:37;;;;;;;;;;;;;;;16.51;39.55;92663.56;2045584;70;20063;-76
2023/03/21 12:02:09;;;;;;;;;;;;;;;17.13;39.96;92654.44;2054259;69;20054;-73
2023/03/21 12:04:40;;;;;;;;;;;;;;;17.27;39.61;92654.94;2058284;69;20553;-75
2023/03/21 12:07:10;;;;;;;;;;;;;;;17.00;39.95;92651.19;2045512;70;20442;-74
2023/03/21 12:09:38;;;;;;;;;;;;;;;17.05;38.68;92645.66;2046108;70;20418;-76
2023/03/21 12:12:04;;;;;;;;;;;;;;;17.26;39.04;92634.31;2045388;69;20047;-74
2023/03/21 12:14:43;;;;;;;;;;;;;;;16.78;38.33;92639.00;2045548;70;20422;-75
2023/03/21 12:17:10;;;;;;;;;;;;;;;16.34;39.07;92630.22;2045544;70;20048;-74
2023/03/21 12:19:51;;;;;;;;;;;;;;;16.38;39.86;92627.53;2045506;70;20047;-74
2023/03/21 12:22:27;;;;;;;;;;;;;;;16.80;40.30;92622.00;2045517;70;20055;-73
2023/03/21 12:25:05;;;;;;;;;;;;;;;16.98;39.37;92616.97;2045507;70;20047;-74
2023/03/21 12:27:44;;;;;;;;;;;;;;;16.38;39.21;92604.81;2045305;70;20127;-75
2023/03/21 12:30:23;;;;;;;;;;;;;;;16.73;39.24;92611.81;2045356;70;20051;-75
2023/03/21 12:33:09;;;;;;;;;;;;;;;16.31;38.61;92599.53;2045151;70;20047;-76
2023/03/21 12:35:45;;;;;;;;;;;;;;;16.97;38.41;92606.25;2045131;70;20065;-75
2023/03/21 12:38:27;;;;;;;;;;;;;;;16.87;37.69;92606.63;2045138;70;20132;-75
2023/03/21 12:41:11;;;;;;;;;;;;;;;17.01;38.33;92614.94;2061062;69;20181;-75
2023/03/21 12:43:43;;;;;;;;;;;;;;;17.35;38.52;92611.84;2061163;69;20478;-77
2023/03/21 12:46:27;;;;;;;;;;;;;;;17.11;38.10;92615.28;2061175;69;20058;-76
2023/03/21 12:48:57;;;;;;;;;;;;;;;15.76;39.35;92612.34;2061318;69;20111;-75
2023/03/21 12:51:32;;;;;;;;;;;;;;;15.90;38.74;92604.41;2061521;69;20070;-75
2023/03/21 12:54:03;;;;;;;;;;;;;;;16.16;39.05;92601.84;2061073;69;20112;-74
2023/03/21 12:56:31;;;;;;;;;;;;;;;16.79;38.60;92592.13;2061428;69;20060;-75
2023/03/21 12:59:00;;;;;;;;;;;;;;;16.90;39.00;92593.94;2061312;69;20049;-74
2023/03/21 13:01:27;;;;;;;;;;;;;;;16.65;38.52;92588.75;2061183;69;20120;-75
2023/03/21 13:04:11;;;;;;;;;;;;;;;17.30;38.63;92590.34;2061263;69;20139;-74
2023/03/21 13:06:37;;;;;;;;;;;;;;;16.91;37.96;92577.63;2061307;69;20487;-75
2023/03/21 13:09:13;;;;;;;;;;;;;;;17.45;37.30;92587.28;2061290;69;20050;-73
2023/03/21 13:11:39;;;;;;;;;;;;;;;18.10;37.15;92583.03;2061315;69;20053;-74
2023/03/21 13:14:07;;;;;;;;;;;;;;;18.34;36.63;92582.31;2061188;69;20054;-74
2023/03/21 13:16:35;;;;;;;;;;;;;;;17.80;36.75;92576.34;2061159;69;20050;-73
2023/03/21 13:19:19;;;;;;;;;;;;;;;18.67;36.89;92576.16;2061407;69;20062;-76
2023/03/21 13:21:54;;;;;;;;;;;;;;;18.69;36.58;92567.72;2061379;69;20046;-75
2023/03/21 13:24:24;;;;;;;;;;;;;;;19.20;35.84;92580.53;2061329;69;20049;-74
2023/03/21 13:26:54;;;;;;;;;;;;;;;19.35;35.36;92570.19;2058115;69;20470;-74
2023/03/21 13:29:25;;;;;;;;;;;;;;;19.44;34.56;92571.16;2058026;69;20042;-74
2023/03/21 13:31:51;;;;;;;;;;;;;;;19.43;33.96;92561.84;2060615;69;20053;-75
2023/03/21 13:34:20;;;;;;;;;;;;;;;19.14;32.48;92559.63;2061240;69;20046;-74
2023/03/21 13:36:47;;;;;;;;;;;;;;;19.73;33.78;92564.03;2061159;69;20417;-74
2023/03/21 13:39:23;;;;;;;;;;;;;;;20.31;32.91;92552.56;2061203;69;20069;-73
2023/03/21 13:41:49;;;;;;;;;;;;;;;20.56;33.42;92543.09;2057934;69;20057;-73
2023/03/21 13:44:19;;;;;;;;;;;;;;;19.64;32.07;92539.53;2061324;69;20481;-73
2023/03/21 13:46:53;;;;;;;;;;;;;;;18.99;33.94;92539.28;2061144;69;20563;-73
2023/03/21 13:49:30;;;;;;;;;;;;;;;18.20;34.60;92531.31;2061175;69;20054;-73